Flight Track Log - Related Links

Times and Time Zones

All times are in EDT time to prevent confusion due to time zone crossing. See the UAL4236 flight status page for this flight to view local times or setup timezone preferences in your user account.

Time Position Orientation Groundspeed Altitude Reporting Facility
EDT Latitude Longitude Course Direction KTS MPH feet Rate Location/Type
Sun 06:51:01 PM 38.2750 -85.8203 262° West 250 288 5,200  Level Indianapolis Center
Sun 06:52:03 PM 38.2619 -85.9033 259° West 246 283 7,600 2,226 Climbing Indianapolis Center
Sun 06:53:05 PM 38.2050 -85.9664 221° Southwest 267 307 9,800 1,742 Climbing Indianapolis Center
Sun 06:54:07 PM 38.1583 -86.0456 233° Southwest 282 325 11,200 1,210 Climbing Indianapolis Center
Sun 06:55:00 PM 38.0465 -86.2833 262° West  Level FlightAware Approximate
Sun 06:55:09 PM 38.1106 -86.1367 236° Southwest 306 352 12,300  Level Indianapolis Center
Sun 06:56:00 PM 38.0330 -86.4122 262° West  Level FlightAware Approximate
Sun 06:56:11 PM 38.0494 -86.2556 237° Southwest 330 380 13,900  Level Indianapolis Center
Sun 06:57:13 PM 37.9969 -86.3558 236° Southwest 338 389 15,200 1,210 Climbing Indianapolis Center
Sun 06:58:15 PM 37.9447 -86.4567 237° Southwest 339 390 16,400 1,113 Climbing Indianapolis Center
Sun 06:59:17 PM 37.8892 -86.5600 236° Southwest 350 403 17,500 968 Climbing Indianapolis Center
Sun 07:00:19 PM 37.8347 -86.6636 236° Southwest 350 403 18,400 968 Climbing Indianapolis Center
Sun 07:01:21 PM 37.7789 -86.7703 237° Southwest 357 411 19,500 1,065 Climbing Indianapolis Center
Sun 07:02:23 PM 37.7222 -86.8772 236° Southwest 361 415 20,600 1,065 Climbing Indianapolis Center
Sun 07:03:25 PM 37.6650 -86.9844 236° Southwest 364 419 21,700 1,104 Climbing Indianapolis Center
Sun 07:04:28 PM 37.6072 -87.0917 236° Southwest 366 421 22,900 1,152 Climbing Indianapolis Center
Sun 07:05:30 PM 37.5439 -87.2122 236° Southwest 368 423 24,100 1,113 Climbing Indianapolis Center
Sun 07:06:32 PM 37.4867 -87.3169 235° Southwest 364 419 25,200 1,091 Climbing Indianapolis Center
Sun 07:07:20 PM 37.4425 -87.4028 237° Southwest 372 428 26,100 1,111 Climbing Memphis Center
Sun 07:08:20 PM 37.3867 -87.5067 236° Southwest 367 422 27,200 1,100 Climbing Memphis Center
Sun 07:09:20 PM 37.3283 -87.6078 234° Southwest 360 414 28,300 1,100 Climbing Memphis Center
Sun 07:10:20 PM 37.2725 -87.7139 237° Southwest 360 414 29,400 1,100 Climbing Memphis Center
Sun 07:11:20 PM 37.2183 -87.8147 236° Southwest 353 406 30,500 1,100 Climbing Memphis Center
Sun 07:12:20 PM 37.1661 -87.9100 235° Southwest 353 406 31,600 900 Climbing Memphis Center
Sun 07:13:20 PM 37.1117 -88.0106 236° Southwest 353 406 32,300 800 Climbing Memphis Center
Sun 07:14:20 PM 37.0553 -88.1111 235° Southwest 353 406 33,200 850 Climbing Memphis Center
Sun 07:15:20 PM 37.0050 -88.2111 238° Southwest 353 406 34,000 400 Climbing Memphis Center
Sun 07:16:20 PM 36.9464 -88.3139 235° Southwest 353 406 34,000  Level Memphis Center
Sun 07:17:20 PM 36.8894 -88.4167 235° Southwest 364 419 34,000  Level Memphis Center
Sun 07:18:20 PM 36.8328 -88.5192 235° Southwest 364 419 34,000  Level Memphis Center
Sun 07:19:20 PM 36.7758 -88.6214 235° Southwest 364 419 34,000  Level Memphis Center
Sun 07:20:20 PM 36.7272 -88.7106 236° Southwest 364 419 34,000 450 Level Memphis Center
Sun 07:21:20 PM 36.6700 -88.8075 234° Southwest 364 419 34,900 1,000 Climbing Memphis Center
Sun 07:22:20 PM 36.6169 -88.9014 235° Southwest 359 413 36,000 550 Climbing Memphis Center
Sun 07:23:20 PM 36.5617 -88.9981 235° Southwest 354 407 36,000  Level Memphis Center
Sun 07:24:20 PM 36.5067 -89.0972 235° Southwest 349 402 36,000  Level Memphis Center
Sun 07:25:20 PM 36.4472 -89.1986 234° Southwest 356 410 36,000  Level Memphis Center
Sun 07:26:20 PM 36.3856 -89.3078 235° Southwest 362 417 36,000  Level Memphis Center
Sun 07:27:20 PM 36.3300 -89.4117 236° Southwest 368 423 36,000  Level Memphis Center
Sun 07:28:20 PM 36.2619 -89.5206 232° Southwest 386 444 36,000  Level Memphis Center
Sun 07:29:20 PM 36.2044 -89.6239 235° Southwest 386 444 36,000  Level Memphis Center
Sun 07:30:20 PM 36.1467 -89.7247 235° Southwest 381 438 36,000  Level Memphis Center
Sun 07:31:20 PM 36.0867 -89.8281 234° Southwest 375 432 36,000  Level Memphis Center
Sun 07:32:20 PM 36.0286 -89.9283 234° Southwest 375 432 36,000  Level Memphis Center
Sun 07:33:20 PM 35.9683 -90.0314 234° Southwest 375 432 36,000  Level Memphis Center
Sun 07:34:20 PM 35.9103 -90.1289 234° Southwest 375 432 36,000  Level Memphis Center
Sun 07:35:20 PM 35.8500 -90.2314 234° Southwest 375 432 36,000  Level Memphis Center
Sun 07:36:20 PM 35.7917 -90.3314 234° Southwest 375 432 36,000  Level Memphis Center
Sun 07:37:20 PM 35.7333 -90.4336 235° Southwest 375 432 36,000  Level Memphis Center
Sun 07:38:20 PM 35.6872 -90.5206 237° Southwest 370 426 36,000  Level Memphis Center
Sun 07:39:20 PM 35.6225 -90.6303 234° Southwest 355 409 36,000  Level Memphis Center
Sun 07:40:20 PM 35.5617 -90.7322 234° Southwest 361 415 36,000  Level Memphis Center
Sun 07:41:20 PM 35.5031 -90.8289 233° Southwest 361 415 36,000  Level Memphis Center
Sun 07:42:20 PM 35.4419 -90.9278 233° Southwest 366 421 36,000  Level Memphis Center
Sun 07:43:20 PM 35.3831 -91.0269 234° Southwest 360 414 36,000  Level Memphis Center
Sun 07:44:20 PM 35.3242 -91.1206 232° Southwest 366 421 36,000  Level Memphis Center
Sun 07:45:20 PM 35.2653 -91.2192 234° Southwest 361 415 36,000  Level Memphis Center
Sun 07:46:20 PM 35.2061 -91.3178 234° Southwest 361 415 36,000  Level Memphis Center
Sun 07:47:20 PM 35.1447 -91.4161 233° Southwest 361 415 36,000  Level Memphis Center
Sun 07:48:20 PM 35.0856 -91.5142 234° Southwest 361 415 36,000  Level Memphis Center
Sun 07:49:20 PM 35.0239 -91.6147 233° Southwest 366 421 36,000  Level Memphis Center
Sun 07:50:20 PM 34.9667 -91.7103 234° Southwest 366 421 36,000  Level Memphis Center
Sun 07:51:20 PM 34.9050 -91.8081 232° Southwest 366 421 36,000  Level Memphis Center
Sun 07:52:20 PM 34.8475 -91.9058 234° Southwest 366 421 36,000  Level Memphis Center
Sun 07:53:20 PM 34.7858 -92.0033 232° Southwest 361 415 36,000  Level Memphis Center
Sun 07:54:20 PM 34.7261 -92.1006 233° Southwest 361 415 36,000  Level Memphis Center
Sun 07:55:20 PM 34.6497 -92.1850 222° Southwest 366 421 36,000  Level Memphis Center
Sun 07:56:20 PM 34.5431 -92.2053 189° South 359 413 36,000  Level Memphis Center
Sun 07:57:20 PM 34.4300 -92.2281 189° South 383 441 36,000  Level Memphis Center
Sun 07:58:20 PM 34.3192 -92.2483 189° South 399 459 36,000  Level Memphis Center
Sun 07:59:20 PM 34.2125 -92.2686 189° South 404 465 36,000  Level Memphis Center
Sun 08:00:20 PM 34.1058 -92.2839 187° South 404 465 36,000  Level Memphis Center
Sun 08:01:20 PM 34.0031 -92.3089 191° South 388 447 36,000  Level Memphis Center
Sun 08:02:47 PM 33.8639 -92.3333 188° South 368 423 36,000  Level Fort Worth Center
Sun 08:03:47 PM 33.7583 -92.3547 190° South 373 429 36,000  Level Fort Worth Center
Sun 08:04:47 PM 33.6525 -92.3706 187° South 386 444 36,000  Level Fort Worth Center
Sun 08:05:47 PM 33.5450 -92.3919 189° South 391 450 36,000  Level Fort Worth Center
Sun 08:06:47 PM 33.4350 -92.4106 188° South 386 444 36,000  Level Fort Worth Center
Sun 08:07:47 PM 33.3314 -92.4289 188° South 386 444 36,000  Level Fort Worth Center
Sun 08:08:47 PM 33.2261 -92.4519 190° South 386 444 36,000  Level Fort Worth Center
Sun 08:09:47 PM 33.1203 -92.4681 187° South 386 444 36,000  Level Fort Worth Center
Sun 08:10:47 PM 33.0144 -92.4886 189° South 386 444 36,000 -50 Level Fort Worth Center
Sun 08:11:47 PM 32.9089 -92.5069 188° South 386 444 35,900 -750 Descending Fort Worth Center
Sun 08:12:47 PM 32.8031 -92.5250 188° South 386 444 34,500 -950 Descending Fort Worth Center
Sun 08:13:47 PM 32.6975 -92.5431 188° South 386 444 34,000 -150 Descending Fort Worth Center
Sun 08:16:07 PM 32.4550 -92.5917 190° South 396 456 34,000  Level Houston Center
Sun 08:17:09 PM 32.3467 -92.6103 188° South 393 452 34,000  Level Houston Center
Sun 08:18:11 PM 32.2194 -92.6325 188° South 386 444 34,000  Level Houston Center
Sun 08:19:13 PM 32.1100 -92.6514 188° South 397 457 34,000 -49 Level Houston Center
Sun 08:20:14 PM 32.0011 -92.6719 189° South 396 456 33,900 -49 Descending Houston Center
Sun 08:21:16 PM 31.9150 -92.7331 211° Southwest 359 413 33,900 48 Level Houston Center
Sun 08:22:18 PM 31.8400 -92.8069 220° Southwest 353 406 34,000 48 Climbing Houston Center
Sun 08:23:20 PM 31.7636 -92.8794 219° Southwest 352 405 34,000  Level Houston Center
Sun 08:24:21 PM 31.6886 -92.9522 220° Southwest 350 403 34,000  Level Houston Center
Sun 08:25:23 PM 31.5981 -93.0392 219° Southwest 352 405 34,000  Level Houston Center
Sun 08:26:25 PM 31.5222 -93.1131 220° Southwest 354 407 34,000  Level Houston Center
Sun 08:27:27 PM 31.4444 -93.1864 219° Southwest 357 411 34,000 -49 Level Houston Center
Sun 08:28:28 PM 31.3667 -93.2603 219° Southwest 361 415 33,900 -683 Descending Houston Center
Sun 08:29:30 PM 31.2847 -93.3394 220° Southwest 363 418 32,600 -1,597 Descending Houston Center
Sun 08:30:32 PM 31.2117 -93.4092 219° Southwest 361 415 30,600 -1,935 Descending Houston Center
Sun 08:31:34 PM 31.1328 -93.4842 219° Southwest 365 420 28,600 -2,146 Descending Houston Center
Sun 08:32:35 PM 31.0308 -93.5825 220° Southwest 392 451 26,200 -2,146 Descending Houston Center
Sun 08:33:37 PM 30.9406 -93.6669 219° Southwest 412 474 24,200 -1,065 Descending Houston Center
Sun 08:34:39 PM 30.8539 -93.7486 219° Southwest 407 468 24,000 -97 Descending Houston Center
Sun 08:35:41 PM 30.7661 -93.8314 219° Southwest 402 463 24,000 -244 Level Houston Center
Sun 08:36:42 PM 30.6794 -93.9125 219° Southwest 410 472 23,500 -1,392 Descending Houston Center
Sun 08:37:46 PM 30.5778 -94.0092 219° Southwest 398 458 21,100 -2,298 Descending Houston Center
Sun 08:38:16 PM 30.5306 -94.0514 218° Southwest 390 449 19,900 -2,400 Descending Houston Center
Sun 08:38:46 PM 30.4942 -94.0875 221° Southwest 389 448 18,700 -2,478 Descending Houston Center
Sun 08:39:48 PM 30.4103 -94.1658 219° Southwest 390 449 16,100 -2,631 Descending Houston Center
Sun 08:40:56 PM 30.3144 -94.2644 222° Southwest 382 440 13,000 -2,195 Descending Houston Center
Sun 08:41:51 PM 30.2842 -94.3503 248° West 369 425 11,600 -1,487 Descending Houston Center
Sun 08:42:53 PM 30.2428 -94.4747 249° West 363 418 10,100 -780 Descending Houston Center
Sun 08:43:54 PM 30.2078 -94.5853 250° West 358 412 10,000 -49 Descending Houston Center
Sun 08:44:56 PM 30.1733 -94.6931 250° West 359 413 10,000  Level Houston Center
Sun 08:45:58 PM 30.1381 -94.8014 249° West 362 417 10,000  Level Houston Center
Sun 08:47:05 PM 30.1058 -94.9275 254° West 364 419 10,000  Level Houston Center
Sun 08:48:06 PM 30.1069 -95.0531 271° West 362 417 10,000  Level Houston Center
Sun 08:49:03 PM 30.1072 -95.1414 270° West 362 417 10,000 -303 Level Houston Center
Sun 08:50:05 PM 30.1069 -95.2572 270° West 293 337 9,400 -1,171 Descending Houston Center
Sun 08:51:06 PM 30.1067 -95.3464 270° West 278 320 7,600 -1,707 Descending Houston Center
Sun 08:52:08 PM 30.1081 -95.4356 271° West 279 321 5,900 -1,489 Descending Houston Center
Sun 08:53:19 PM 30.1014 -95.5392 266° West 251 289 4,300 -864 Descending Houston Center
Sun 08:54:20 PM 30.0561 -95.5736 213° Southwest 218 251 4,000 -738 Descending Houston Center
Sun 08:55:21 PM 30.0150 -95.5133 128° Southeast 225 259 2,800 -1,180 Descending Houston Center

Login

Don't have an account? Register now (free) for customized features, flight alerts, and more!